Nearby METAR Reports

 

KMTN - Baltimore/Martin, Maryland, USA
Distance from station: SSE 8mi, 13km
Updated: Tue, 03-Mar-2015 8:54am EST
Mostly cloudy
Mostly cloudy
 Wind from E
Wind: E 6 mph , 9 km/h
Temperature: 28°F , -2°C
Wind Chill: 21°F , -6°C
Dew Point: 16°F , -9°C
Humidity: 59%
Barometer: 30.49 inHg , 1032.5 hPa
Clouds: Mostly cloudy
Visibility: 10 miles , 16 km
Cloud details: Mostly cloudy 10000 ft
2015/03/03 13:54 KMTN 031354Z 09005KT 10SM BKN100 M02/M09 A3049
KDMH - Baltimore/Dwntwn, Maryland, USA
Distance from station: SW 12mi, 19km
Updated: Tue, 03-Mar-2015 9:54am EST

 
Temperature: 1°F , -17°C
Barometer: 30.45 inHg , 1031.2 hPa
2015/03/03 14:54 KDMH 031454Z AUTO M17/ A3045 RMK AO1 SLP309 T1172 50004 $
 
KBWI - Balto/Wash Intl, Maryland, USA
Distance from station: SSW 20mi, 33km
Updated: Tue, 03-Mar-2015 9:54am EST
Overcast
Overcast
 Wind from E
Wind: E 8 mph , 13 km/h
Temperature: 28°F , -2°C
Wind Chill: 20°F , -7°C
Dew Point: 12°F , -11°C
Humidity: 51%
Barometer: 30.42 inHg , 1030.1 hPa
Clouds: Overcast
Visibility: 10 miles , 16 km
Cloud details: Few Clouds 5500 ft
Overcast 10000 ft
2015/03/03 14:54 KBWI 031454Z 10007KT 10SM FEW055 OVC100 M02/M11 A3042 RMK AO2 SLP301 T10221106 58004
KDMW - Carroll Cnty, Maryland, USA
Distance from station: WNW 30mi, 48km
Updated: Tue, 03-Mar-2015 9:40am EST
Clear
Clear
 Wind from SE
Wind: SE 9 mph , 15 km/h
Temperature: 27°F , -3°C
Wind Chill: 18°F , -8°C
Dew Point: 12°F , -11°C
Humidity: 54%
Barometer: 30.36 inHg , 1028.1 hPa
Clouds: Clear
Visibility: 10 miles , 16 km
2015/03/03 14:40 KDMW 031440Z AUTO 13008KT 10SM CLR M03/M11 A3036 RMK AO2
 
KNAK - Annapolis/Naval, Maryland, USA
Distance from station: S 30mi, 48km
Updated: Tue, 03-Mar-2015 9:54am EST
Mostly cloudy
Mostly cloudy
 Wind from ESE
Wind: ESE 8 mph , 13 km/h
Temperature: 28°F , -2°C
Wind Chill: 20°F , -7°C
Dew Point: 16°F , -9°C
Humidity: 59%
Barometer: 30.44 inHg , 1030.8 hPa
Clouds: Mostly cloudy
Visibility: 10 miles , 16 km
Cloud details: Mostly cloudy 11000 ft
2015/03/03 14:54 KNAK 031454Z AUTO 11007KT 10SM BKN110 M02/M09 A3044 RMK AO2 SLP309 T10171094 50000
KW29 - Stevensville, Maryland, USA
Distance from station: SSE 31mi, 50km
Updated: Tue, 03-Mar-2015 9:38am EST

 Wind from ESE
Wind: ESE 6 mph , 9 km/h
Temperature: 30°F , -1°C
Wind Chill: 24°F , -4°C
Dew Point: 12°F , -11°C
Humidity: 47%
Barometer: 30.46 inHg , 1031.5 hPa
Visibility: 10 miles , 16 km
2015/03/03 14:38 KW29 031438Z AUTO 11005KT 10SM M01/M11 A3046 RMK AO1
 
KCGS - College Park, Maryland, USA
Distance from station: SW 38mi, 61km
Updated: Tue, 03-Mar-2015 9:35am EST
Mostly cloudy
Mostly cloudy
 Wind from ESE
Wind: ESE 6 mph , 9 km/h
Temperature: 32°F , 0°C
Wind Chill: 26°F , -3°C
Dew Point: 18°F , -8°C
Humidity: 55%
Barometer: 30.43 inHg , 1030.5 hPa
Clouds: Mostly cloudy
Visibility: 10 miles , 16 km
Cloud details: Mostly cloudy 11000 ft
2015/03/03 14:35 KCGS 031435Z AUTO 11005KT 10SM BKN110 00/M08 A3043 RMK AO1
KGAI - Gaithersburg, Maryland, USA
Distance from station: WSW 40mi, 65km
Updated: Tue, 03-Mar-2015 9:55am EST
Clear
Clear
 Wind from SE
Wind: SE 9 mph , 15 km/h
Temperature: 28°F , -2°C
Wind Chill: 19°F , -7°C
Dew Point: 12°F , -11°C
Humidity: 51%
Barometer: 30.42 inHg , 1030.1 hPa
Clouds: Clear
Visibility: 10 miles , 16 km
2015/03/03 14:55 KGAI 031455Z AUTO 13008KT 10SM CLR M02/M11 A3042 RMK AO1 57007
 
KTHV - York, Pennsylvania, USA
Distance from station: NNW 40mi, 65km
Updated: Tue, 03-Mar-2015 9:53am EST
Mostly cloudy
Mostly cloudy
 Wind from ESE
Wind: ESE 8 mph , 13 km/h
Temperature: 27°F , -3°C
Wind Chill: 19°F , -7°C
Dew Point: 12°F , -11°C
Humidity: 54%
Barometer: 30.37 inHg , 1028.4 hPa
Clouds: Mostly cloudy
Visibility: 10 miles , 16 km
Cloud details: Mostly cloudy 8500 ft
2015/03/03 14:53 KTHV 031453Z AUTO 11007KT 10SM BKN085 M03/M11 A3037 RMK AO2 SLP295 T10281111 58008
KFDK - Frederick, Maryland, USA
Distance from station: W 47mi, 75km
Updated: Tue, 03-Mar-2015 9:45am EST
Partly cloudy
Partly cloudy
 Wind from calm
Wind: Calm
Temperature: 30°F , -1°C
Dew Point: 12°F , -11°C
Humidity: 47%
Barometer: 30.43 inHg , 1030.5 hPa
Clouds: Partly cloudy
Visibility: 10 miles , 16 km
Cloud details: Partly cloudy 11000 ft
2015/03/03 14:45 KFDK 031445Z 00000KT 10SM SCT110 M01/M11 A3043
 
KESN - Easton/Newnam, Maryland, USA
Distance from station: SSE 48mi, 78km
Updated: Tue, 03-Mar-2015 9:50am EST
Clear
Clear
 Wind from SE
Wind: SE 6 mph , 9 km/h
Temperature: 32°F , 0°C
Wind Chill: 26°F , -3°C
Dew Point: 18°F , -8°C
Humidity: 55%
Barometer: 30.48 inHg , 1032.2 hPa
Clouds: Clear
Visibility: 10 miles , 16 km
2015/03/03 14:50 KESN 031450Z 13005KT 10SM SKC 00/M08 A3048
KDCA - Washington/Natl, Washington D.c., USA
Distance from station: SW 49mi, 79km
Updated: Tue, 03-Mar-2015 9:52am EST
Overcast
Overcast
 Wind from SSE
Wind: SSE 7 mph , 11 km/h
Temperature: 34°F , 1°C
Wind Chill: 28°F , -2°C
Dew Point: 16°F , -9°C
Humidity: 48%
Barometer: 30.43 inHg , 1030.5 hPa
Clouds: Overcast
Visibility: 10 miles , 16 km
Cloud details: Few Clouds 9500 ft
Overcast 20000 ft
2015/03/03 14:52 KDCA 031452Z 15006KT 10SM FEW095 OVC200 01/M09 A3043 RMK AO2 SLP304 T00111089 58004
 
KLNS - Lancaster, Pennsylvania, USA
Distance from station: N 49mi, 79km
Updated: Tue, 03-Mar-2015 9:53am EST
Clear
Clear
 Wind from SE
Wind: SE 7 mph , 11 km/h
Temperature: 25°F , -4°C
Wind Chill: 17°F , -8°C
Dew Point: 12°F , -11°C
Humidity: 59%
Barometer: 30.39 inHg , 1029.1 hPa
Clouds: Clear
Visibility: 10 miles , 16 km
2015/03/03 14:53 KLNS 031453Z 13006KT 10SM CLR M04/M11 A3039 RMK AO2 SLP295 T10391106 58007
KILG - Wilmington, Delaware, USA
Distance from station: ENE 50mi, 81km
Updated: Tue, 03-Mar-2015 9:51am EST
Partly cloudy
Partly cloudy
 Wind from varies
Wind: varies 5 mph , 7 km/h
Temperature: 28°F , -2°C
Wind Chill: 22°F , -6°C
Dew Point: 12°F , -11°C
Humidity: 51%
Barometer: 30.45 inHg , 1031.2 hPa
Clouds: Partly cloudy
Visibility: 10 miles , 16 km
Cloud details: Partly cloudy 11000 ft
2015/03/03 14:51 KILG 031451Z VRB04KT 10SM SCT110 M02/M11 A3045 RMK AO2 SLP311 T10221111 58004